Ship Status Report: callsign BARFR04

sailwx.info

Track history (hours):
 
Tides and Currents Weather Stations Pressure Air Temp Water Temp Dewpoint Dewpoint Depression Visibility Wind Speed Wind Dir Waves Ship Positions

Callsign BARFR04 (name unknown)

Last reported at 2020-Jan-14 09:00 UTC. Time now 2020-Oct-20 12:17 UTC.
Position S 35°30' E 174°42'.
Warning: this ship's position is months out of date.

Barometer 1018.4 mb

Date/timePositionNaut miles runAvg speedWind from/ knotsBaromVisibWave heightAir tempDewpointWater temp
2020-Jan-14 09:00S 35°30' E 174°42'0 0.0 1018.4
2020-Jan-14 08:00S 35°30' E 174°42'0 0.0 1018.1
2020-Jan-14 07:00S 35°30' E 174°42'0 0.0 1017.6
2020-Jan-14 06:00S 35°30' E 174°42'0 0.0 1017.3
2020-Jan-14 05:00S 35°30' E 174°42'0 0.0 1017.3
2020-Jan-14 04:00S 35°30' E 174°42'8 7.7 1017.8
2020-Jan-14 03:00S 35°36' E 174°48'0 0.0 1017.9
2020-Jan-14 02:00S 35°36' E 174°48'5 4.9 1018.3
2020-Jan-14 01:00S 35°36' E 174°54'6 6.0 1018.3
2020-Jan-14 00:00S 35°42' E 174°54'8 7.7 1018.5
2020-Jan-13 23:00S 35°48' E 175°00'0 0.0 1018.8
2020-Jan-13 22:00S 35°48' E 175°00'8 7.7 1018.8
2020-Jan-13 21:00S 35°54' E 175°06'0 0.0 1018.9
2020-Jan-13 20:00S 35°54' E 175°06'0 0.0 1019.0
2020-Jan-13 19:00S 35°54' E 175°06'0 0.0 1018.7
2020-Jan-13 18:00S 35°54' E 175°06'0 0.0 1018.4
2020-Jan-13 17:00S 35°54' E 175°06'0 0.0 1018.3
2020-Jan-13 16:00S 35°54' E 175°06'0 0.0 1018.2
2020-Jan-13 15:00S 35°54' E 175°06'0 0.0 1018.2
2020-Jan-13 14:00S 35°54' E 175°06'0 0.0 1018.2
2020-Jan-13 13:00S 35°54' E 175°06'0 0.0 1018.2
2020-Jan-13 12:00S 35°54' E 175°06'0 0.0 1018.2
2020-Jan-13 11:00S 35°54' E 175°06'0 0.0 1018.5
2020-Jan-13 10:00S 35°54' E 175°06'0 0.0 1018.6
2020-Jan-13 09:00S 35°54' E 175°06'0 0.0 1018.3
2020-Jan-13 08:00S 35°54' E 175°06'0 0.0 1018.2
2020-Jan-13 07:00S 35°54' E 175°06'0 0.0 1017.9
2020-Jan-13 06:00S 35°54' E 175°06'0 0.0 1017.6
2020-Jan-13 05:00S 35°54' E 175°06'0 0.0 1017.5
2020-Jan-13 04:00S 35°54' E 175°06'0 0.0 1017.7
2020-Jan-13 03:00S 35°54' E 175°06'0 0.0 1017.9
2020-Jan-13 02:00S 35°54' E 175°06'0 0.0 1018.2
2020-Jan-13 01:00S 35°54' E 175°06'0 0.0 1018.8
2020-Jan-13 00:00S 35°54' E 175°06'0 0.0 1019.1
2020-Jan-12 23:00S 35°54' E 175°06'6 6.0 1019.2
2020-Jan-12 22:00S 36°00' E 175°06'8 7.7 1018.9
2020-Jan-12 21:00S 36°06' E 175°12'0 0.0 1018.9
2020-Jan-12 20:00S 36°06' E 175°12'8 7.7 1019.2
2020-Jan-12 19:00S 36°12' E 175°18'0 0.0 1019.1
2020-Jan-12 18:00S 36°12' E 175°18'0 0.0 1018.8
2020-Jan-12 17:00S 36°12' E 175°18'0 0.0 1018.7
2020-Jan-12 16:00S 36°12' E 175°18'0 0.0 1018.1
2020-Jan-12 15:00S 36°12' E 175°18'0 0.0 1018.2
2020-Jan-12 14:00S 36°12' E 175°18'0 0.0 1018.2
2020-Jan-12 13:00S 36°12' E 175°18'0 0.0 1019.0
2020-Jan-12 12:00S 36°12' E 175°18'0 0.0 1019.5
2020-Jan-12 11:00S 36°12' E 175°18'0 0.0 1019.7
2020-Jan-12 10:00S 36°12' E 175°18'0 0.0 1019.6
2020-Jan-12 09:00S 36°12' E 175°18'0 0.0 1019.4
2020-Jan-12 08:00S 36°12' E 175°18'0 0.0 1019.0
2020-Jan-12 07:00S 36°12' E 175°18'0 0.0 1018.3
2020-Jan-12 06:00S 36°12' E 175°18'0 0.0 1017.9
2020-Jan-12 05:00S 36°12' E 175°18'0 0.0 1017.5
2020-Jan-12 04:00S 36°12' E 175°18'0 0.0 1018.0
2020-Jan-12 03:00S 36°12' E 175°18'0 0.0 1018.2
2020-Jan-12 02:00S 36°12' E 175°18'0 0.0 1018.2
2020-Jan-12 01:00S 36°12' E 175°18'0 0.0 1018.7
2020-Jan-12 00:00S 36°12' E 175°18'0 0.0 1019.1
2020-Jan-11 23:00S 36°12' E 175°18'0 0.0 1019.2
2020-Jan-11 22:00S 36°12' E 175°18'0 0.0 1019.3
2020-Jan-11 21:00S 36°12' E 175°18'0 0.0 1019.4
2020-Jan-11 20:00S 36°12' E 175°18'0 0.0 1019.7
2020-Jan-11 19:00S 36°12' E 175°18'0 0.0 1019.5
2020-Jan-11 18:00S 36°12' E 175°18'0 0.0 1019.5
2020-Jan-11 17:00S 36°12' E 175°18'0 0.0 1019.1
2020-Jan-11 16:00S 36°12' E 175°18'0 0.0 1019.3
2020-Jan-11 15:00S 36°12' E 175°18'0 0.0 1019.2
2020-Jan-11 14:00S 36°12' E 175°18'0 0.0 1019.7
2020-Jan-11 13:00S 36°12' E 175°18'0 0.0 1020.3
2020-Jan-11 12:00S 36°12' E 175°18'0 0.0 1020.8
2020-Jan-11 11:00S 36°12' E 175°18'0 0.0 1020.8
2020-Jan-11 10:00S 36°12' E 175°18'0 0.0 1020.6
2020-Jan-11 09:00S 36°12' E 175°18'0 0.0 1019.7
2020-Jan-11 08:00S 36°12' E 175°18'0 0.0 1019.2
2020-Jan-11 07:00S 36°12' E 175°18'0 0.0 1018.9
2020-Jan-11 06:00S 36°12' E 175°18'0 0.0 1018.6
2020-Jan-11 05:00S 36°12' E 175°18'0 0.0 1018.5
2020-Jan-11 04:00S 36°12' E 175°18'0 0.0 1019.2
2020-Jan-11 03:00S 36°12' E 175°18'0 0.0 1019.7
2020-Jan-11 02:00S 36°12' E 175°18'0 0.0 1020.2
2020-Jan-11 01:00S 36°12' E 175°18'0 0.0 1020.7
2020-Jan-11 00:00S 36°12' E 175°18'0 0.0 1021.2
2020-Jan-10 23:00S 36°12' E 175°18'0 0.0 1021.4
2020-Jan-10 22:00S 36°12' E 175°18'0 0.0 1021.7
2020-Jan-10 21:00S 36°12' E 175°18'0 0.0 1022.0
2020-Jan-10 20:00S 36°12' E 175°18'0 0.0 1022.0
2020-Jan-10 19:00S 36°12' E 175°18'0 0.0 1021.9
2020-Jan-10 18:00S 36°12' E 175°18'0 0.0 1021.5
2020-Jan-10 17:00S 36°12' E 175°18'0 0.0 1021.4
2020-Jan-10 16:00S 36°12' E 175°18'0 0.0 1021.1
2020-Jan-10 15:00S 36°12' E 175°18'0 0.0 1021.3
2020-Jan-10 14:00S 36°12' E 175°18'0 0.0 1021.5
2020-Jan-10 13:00S 36°12' E 175°18'0 0.0 1022.3
2020-Jan-10 12:00S 36°12' E 175°18'0 0.0 1022.2
2020-Jan-10 11:00S 36°12' E 175°18'0 0.0 1022.3
2020-Jan-10 10:00S 36°12' E 175°18'0 0.0 1022.1
2020-Jan-10 09:00S 36°12' E 175°18'0 0.0 1021.8
2020-Jan-10 08:00S 36°12' E 175°18'0 0.0 1022.0
2020-Jan-10 07:00S 36°12' E 175°18'5 4.8 1020.9
2020-Jan-10 06:00S 36°12' E 175°24'0 0.0 1020.4
2020-Jan-10 05:00S 36°12' E 175°24'0 0.0 1020.4
2020-Jan-10 04:00S 36°12' E 175°24'5 4.8 1020.5
2020-Jan-10 03:00S 36°12' E 175°18'5 4.8 1021.0
2020-Jan-10 02:00S 36°12' E 175°24'0 0.0 1020.9
2020-Jan-10 01:00S 36°12' E 175°24'0 0.0 1021.4
2020-Jan-10 00:00S 36°12' E 175°24'0 0.0 1022.1
2020-Jan-09 23:00S 36°12' E 175°24'0 0.0 1022.6
2020-Jan-09 22:00S 36°12' E 175°24'0 0.0 1022.3
2020-Jan-09 21:00S 36°12' E 175°24'0 0.0 1022.4
2020-Jan-09 20:00S 36°12' E 175°24'0 0.0 1022.4
2020-Jan-09 19:00S 36°12' E 175°24'0 0.0 1021.9
2020-Jan-09 18:00S 36°12' E 175°24'0 0.0 1021.4
2020-Jan-09 17:00S 36°12' E 175°24'0 0.0 1020.8
2020-Jan-09 16:00S 36°12' E 175°24'0 0.0 1020.4
2020-Jan-09 15:00S 36°12' E 175°24'0 0.0 1020.3
2020-Jan-09 14:00S 36°12' E 175°24'0 0.0 1020.6
2020-Jan-09 13:00S 36°12' E 175°24'0 0.0 1020.8
2020-Jan-09 12:00S 36°12' E 175°24'0 0.0 1021.1
2020-Jan-09 11:00S 36°12' E 175°24'0 0.0 1020.9
2020-Jan-09 10:00S 36°12' E 175°24'0 0.0 1020.9
2020-Jan-09 09:00S 36°12' E 175°24'0 0.0 1020.6
2020-Jan-09 08:00S 36°12' E 175°24'0 0.0 1020.0
2020-Jan-09 07:00S 36°12' E 175°24'0 0.0 1019.3
2020-Jan-09 06:00S 36°12' E 175°24'0 0.0 1018.9
2020-Jan-09 05:00S 36°12' E 175°24'0 0.0 1018.7
2020-Jan-09 04:00S 36°12' E 175°24'5 4.8 1018.6
2020-Jan-09 03:00S 36°12' E 175°18'5 4.8 1019.1
2020-Jan-09 02:00S 36°12' E 175°12'8 7.7 1019.4
2020-Jan-09 01:00S 36°18' E 175°06'5 4.8 1019.5
2020-Jan-09 00:00S 36°18' E 175°00'5 4.8 1019.8
2020-Jan-08 23:00S 36°18' E 174°54'8 7.7 1019.8
2020-Jan-08 22:00S 36°24' E 174°48'0 0.0 1019.8
2020-Jan-08 21:00S 36°24' E 174°48'0 0.0 1019.9
2020-Jan-08 20:00S 36°24' E 174°48'0 0.0 1019.7
2020-Jan-08 19:00S 36°24' E 174°48'0 0.0 1019.1
2020-Jan-08 18:00S 36°24' E 174°48'0 0.0 1018.7
2020-Jan-08 17:00S 36°24' E 174°48'0 0.0 1018.2
2020-Jan-08 16:00S 36°24' E 174°48'0 0.0 1017.8
2020-Jan-08 15:00S 36°24' E 174°48'0 0.0 1017.7
2020-Jan-08 14:00S 36°24' E 174°48'0 0.0 1018.1
2020-Jan-08 13:00S 36°24' E 174°48'0 0.0 1018.3
2020-Jan-08 12:00S 36°24' E 174°48'0 0.0 1018.5
2020-Jan-08 11:00S 36°24' E 174°48'0 0.0 1018.6
2020-Jan-08 10:00S 36°24' E 174°48'0 0.0 1018.7
2020-Jan-08 09:00S 36°24' E 174°48'0 0.0 1018.3
2020-Jan-08 08:00S 36°24' E 174°48'0 0.0 1018.0
2020-Jan-08 07:00S 36°24' E 174°48'0 0.0 1017.1
2020-Jan-08 06:00S 36°24' E 174°48'0 0.0 1016.4
2020-Jan-08 05:00S 36°24' E 174°48'0 0.0 1016.3
2020-Jan-08 04:00S 36°24' E 174°48'6 6.0 1016.4
2020-Jan-08 03:00S 36°30' E 174°48'0 0.0 1016.9
2020-Jan-08 02:00S 36°30' E 174°48'8 7.7 1017.1
2020-Jan-08 01:00S 36°36' E 174°54'6 6.0 1017.3
2020-Jan-08 00:00S 36°42' E 174°54'8 7.7 1017.4
2020-Jan-07 23:00S 36°48' E 175°00'0 0.0 1017.4
2020-Jan-07 22:00S 36°48' E 175°00'6 6.0 1017.1
2020-Jan-07 21:00S 36°54' E 175°00'0 0.0 1017.0
2020-Jan-07 20:00S 36°54' E 175°00'0 0.0 1016.9
2020-Jan-07 19:00S 36°54' E 175°00'0 0.0 1016.4
2020-Jan-07 18:00S 36°54' E 175°00'0 0.0 1015.8
2020-Jan-07 17:00S 36°54' E 175°00'0 0.0 1015.3
2020-Jan-07 16:00S 36°54' E 175°00'0 0.0 1014.9
2020-Jan-07 15:00S 36°54' E 175°00'0 0.0 1014.6
2020-Jan-07 14:00S 36°54' E 175°00'0 0.0 1014.7
2020-Jan-07 13:00S 36°54' E 175°00'0 0.0 1014.8
2020-Jan-07 12:00S 36°54' E 175°00'0 0.0 1014.7
2020-Jan-07 11:00S 36°54' E 175°00'0 0.0 1014.2
2020-Jan-07 10:00S 36°54' E 175°00'0 0.0 1014.0
2020-Jan-07 09:00S 36°54' E 175°00'0 0.0 1013.6
2020-Jan-07 08:00S 36°54' E 175°00'0 0.0 1013.2
2020-Jan-07 07:00S 36°54' E 175°00'0 0.0 1012.5
2020-Jan-07 06:00S 36°54' E 175°00'0 0.0 1011.8
2020-Jan-07 05:00S 36°54' E 175°00'0 0.0 1011.7
2020-Jan-07 04:00S 36°54' E 175°00'0 0.0 1011.5
2020-Jan-07 03:00S 36°54' E 175°00'0 0.0 1011.5
2020-Jan-07 02:00S 36°54' E 175°00'0 0.0 1011.5
2020-Jan-07 01:00S 36°54' E 175°00'0 0.0 1011.6
2020-Jan-07 00:00S 36°54' E 175°00'0 0.0 1011.7
2020-Jan-06 23:00S 36°54' E 175°00'0 0.0 1012.1
2020-Jan-06 22:00S 36°54' E 175°00'0 0.0 1012.1
2020-Jan-06 21:00S 36°54' E 175°00'0 0.0 1011.7
2020-Jan-06 20:00S 36°54' E 175°00'0 0.0 1011.0
2020-Jan-06 19:00S 36°54' E 175°00'0 0.0 1010.7
2020-Jan-06 18:00S 36°54' E 175°00'0 0.0 1010.2
2020-Jan-06 17:00S 36°54' E 175°00'0 0.0 1009.3
2020-Jan-06 16:00S 36°54' E 175°00'0 0.0 1008.9
2020-Jan-06 15:00S 36°54' E 175°00'0 0.0 1008.6
2020-Jan-06 14:00S 36°54' E 175°00'0 0.0 1008.6
2020-Jan-06 13:00S 36°54' E 175°00'0 0.0 1009.2
2020-Jan-06 12:00S 36°54' E 175°00'0 0.0 1009.3
2020-Jan-06 11:00S 36°54' E 175°00'0 0.0 1009.1
2020-Jan-06 10:00S 36°54' E 175°00'0 0.0 1009.1
2020-Jan-06 09:00S 36°54' E 175°00'0 0.0 1009.0
2020-Jan-06 08:00S 36°54' E 175°00'0 0.0 1008.7
2020-Jan-06 07:00S 36°54' E 175°00'0 0.0 1008.1
2020-Jan-06 06:00S 36°54' E 175°00'0 0.0 1007.7
2020-Jan-06 05:00S 36°54' E 175°00'0 0.0 1007.3
2020-Jan-06 04:00S 36°54' E 175°00'0 0.0 1007.6
2020-Jan-06 03:00S 36°54' E 175°00'0 0.0 1008.0
2020-Jan-06 02:00S 36°54' E 175°00'0 0.0 1007.9
2020-Jan-06 01:00S 36°54' E 175°00'0 0.0 1008.1
2020-Jan-06 00:00S 36°54' E 175°00'0 0.0 1008.4
2020-Jan-05 23:00S 36°54' E 175°00'0 0.0 1008.6
2020-Jan-05 22:00S 36°54' E 175°00'0 0.0 1008.5
2020-Jan-05 21:00S 36°54' E 175°00'0 0.0 1008.4
2020-Jan-05 20:00S 36°54' E 175°00'0 0.0 1008.3
2020-Jan-05 19:00S 36°54' E 175°00'0 0.0 1007.5
2020-Jan-05 18:00S 36°54' E 175°00'0 0.0 1007.6
2020-Jan-05 17:00S 36°54' E 175°00'0 0.0 1006.8
2020-Jan-05 16:00S 36°54' E 175°00'0 0.0 1005.4
2020-Jan-05 15:00S 36°54' E 175°00'0 0.0 1005.5
2020-Jan-05 14:00S 36°54' E 175°00'0 0.0 1006.6
2020-Jan-05 13:00S 36°54' E 175°00'0 0.0 1007.7
2020-Jan-05 12:00S 36°54' E 175°00'0 0.0 1008.1
2020-Jan-05 11:00S 36°54' E 175°00'0 0.0 1009.1
2020-Jan-05 10:00S 36°54' E 175°00'0 0.0 1009.8
2020-Jan-05 09:00S 36°54' E 175°00'0 0.0 1010.7
2020-Jan-05 08:00S 36°54' E 175°00'0 0.0 1010.9
2020-Jan-05 07:00S 36°54' E 175°00'0 0.0 1010.6
2020-Jan-05 06:00S 36°54' E 175°00'0 0.0 1010.9
2020-Jan-05 05:00S 36°54' E 175°00'0 0.0 1010.8
2020-Jan-05 04:00S 36°54' E 175°00'0 0.0 1012.3
2020-Jan-05 03:00S 36°54' E 175°00'0 0.0 1012.7
2020-Jan-05 02:00S 36°54' E 175°00'0 0.0 1012.1
2020-Jan-05 01:00S 36°54' E 175°00'0 0.0 1012.5
2020-Jan-05 00:00S 36°54' E 175°00'0 0.0 1013.1
2020-Jan-04 23:00S 36°54' E 175°00'0 0.0 1013.6
2020-Jan-04 22:00S 36°54' E 175°00'0 0.0 1013.7
2020-Jan-04 21:00S 36°54' E 175°00'0 0.0 1014.0
2020-Jan-04 20:00S 36°54' E 175°00'6 6.0 1013.5
2020-Jan-04 19:00S 36°48' E 175°00'5 4.8 1013.4
2020-Jan-04 18:00S 36°48' E 174°54'0 0.0 1013.3
2020-Jan-04 17:00S 36°48' E 174°54'0 0.0 1012.5
2020-Jan-04 16:00S 36°48' E 174°54'0 0.0 1012.3
2020-Jan-04 15:00S 36°48' E 174°54'0 0.0 1012.2
2020-Jan-04 14:00S 36°48' E 174°54'0 0.0 1012.3
2020-Jan-04 13:00S 36°48' E 174°54'0 0.0 1012.4
2020-Jan-04 12:00S 36°48' E 174°54'0 0.0 1012.6
2020-Jan-04 11:00S 36°48' E 174°54'0 0.0 1012.8
2020-Jan-04 10:00S 36°48' E 174°54'0 0.0 1012.2
2020-Jan-04 09:00S 36°48' E 174°54'   1011.6
Track history (hours):
 
Tides and Currents Weather Stations Pressure Air Temp Water Temp Dewpoint Dewpoint Depression Visibility Wind Speed Wind Dir Waves Ship Positions

Callsign BARFR04 (name unknown)

Last reported at 2020-Jan-14 09:00 UTC. Time now 2020-Oct-20 12:17 UTC.
Position S 35°30' E 174°42'.
Warning: this ship's position is months out of date.

Barometer 1018.4 mb

Date/timePositionNaut miles runAvg speedWind from/ knotsBaromVisibWave heightAir tempDewpointWater temp
2020-Jan-14 09:00S 35°30' E 174°42'0 0.0 1018.4
2020-Jan-14 08:00S 35°30' E 174°42'0 0.0 1018.1
2020-Jan-14 07:00S 35°30' E 174°42'0 0.0 1017.6
2020-Jan-14 06:00S 35°30' E 174°42'0 0.0 1017.3
2020-Jan-14 05:00S 35°30' E 174°42'0 0.0 1017.3
2020-Jan-14 04:00S 35°30' E 174°42'8 7.7 1017.8
2020-Jan-14 03:00S 35°36' E 174°48'0 0.0 1017.9
2020-Jan-14 02:00S 35°36' E 174°48'5 4.9 1018.3
2020-Jan-14 01:00S 35°36' E 174°54'6 6.0 1018.3
2020-Jan-14 00:00S 35°42' E 174°54'8 7.7 1018.5
2020-Jan-13 23:00S 35°48' E 175°00'0 0.0 1018.8
2020-Jan-13 22:00S 35°48' E 175°00'8 7.7 1018.8
2020-Jan-13 21:00S 35°54' E 175°06'0 0.0 1018.9
2020-Jan-13 20:00S 35°54' E 175°06'0 0.0 1019.0
2020-Jan-13 19:00S 35°54' E 175°06'0 0.0 1018.7
2020-Jan-13 18:00S 35°54' E 175°06'0 0.0 1018.4
2020-Jan-13 17:00S 35°54' E 175°06'0 0.0 1018.3
2020-Jan-13 16:00S 35°54' E 175°06'0 0.0 1018.2
2020-Jan-13 15:00S 35°54' E 175°06'0 0.0 1018.2
2020-Jan-13 14:00S 35°54' E 175°06'0 0.0 1018.2
2020-Jan-13 13:00S 35°54' E 175°06'0 0.0 1018.2
2020-Jan-13 12:00S 35°54' E 175°06'0 0.0 1018.2
2020-Jan-13 11:00S 35°54' E 175°06'0 0.0 1018.5
2020-Jan-13 10:00S 35°54' E 175°06'0 0.0 1018.6
2020-Jan-13 09:00S 35°54' E 175°06'0 0.0 1018.3
2020-Jan-13 08:00S 35°54' E 175°06'0 0.0 1018.2
2020-Jan-13 07:00S 35°54' E 175°06'0 0.0 1017.9
2020-Jan-13 06:00S 35°54' E 175°06'0 0.0 1017.6
2020-Jan-13 05:00S 35°54' E 175°06'0 0.0 1017.5
2020-Jan-13 04:00S 35°54' E 175°06'0 0.0 1017.7
2020-Jan-13 03:00S 35°54' E 175°06'0 0.0 1017.9
2020-Jan-13 02:00S 35°54' E 175°06'0 0.0 1018.2
2020-Jan-13 01:00S 35°54' E 175°06'0 0.0 1018.8
2020-Jan-13 00:00S 35°54' E 175°06'0 0.0 1019.1
2020-Jan-12 23:00S 35°54' E 175°06'6 6.0 1019.2
2020-Jan-12 22:00S 36°00' E 175°06'8 7.7 1018.9
2020-Jan-12 21:00S 36°06' E 175°12'0 0.0 1018.9
2020-Jan-12 20:00S 36°06' E 175°12'8 7.7 1019.2
2020-Jan-12 19:00S 36°12' E 175°18'0 0.0 1019.1
2020-Jan-12 18:00S 36°12' E 175°18'0 0.0 1018.8
2020-Jan-12 17:00S 36°12' E 175°18'0 0.0 1018.7
2020-Jan-12 16:00S 36°12' E 175°18'0 0.0 1018.1
2020-Jan-12 15:00S 36°12' E 175°18'0 0.0 1018.2
2020-Jan-12 14:00S 36°12' E 175°18'0 0.0 1018.2
2020-Jan-12 13:00S 36°12' E 175°18'0 0.0 1019.0
2020-Jan-12 12:00S 36°12' E 175°18'0 0.0 1019.5
2020-Jan-12 11:00S 36°12' E 175°18'0 0.0 1019.7
2020-Jan-12 10:00S 36°12' E 175°18'0 0.0 1019.6
2020-Jan-12 09:00S 36°12' E 175°18'0 0.0 1019.4
2020-Jan-12 08:00S 36°12' E 175°18'0 0.0 1019.0
2020-Jan-12 07:00S 36°12' E 175°18'0 0.0 1018.3
2020-Jan-12 06:00S 36°12' E 175°18'0 0.0 1017.9
2020-Jan-12 05:00S 36°12' E 175°18'0 0.0 1017.5
2020-Jan-12 04:00S 36°12' E 175°18'0 0.0 1018.0
2020-Jan-12 03:00S 36°12' E 175°18'0 0.0 1018.2
2020-Jan-12 02:00S 36°12' E 175°18'0 0.0 1018.2
2020-Jan-12 01:00S 36°12' E 175°18'0 0.0 1018.7
2020-Jan-12 00:00S 36°12' E 175°18'0 0.0 1019.1
2020-Jan-11 23:00S 36°12' E 175°18'0 0.0 1019.2
2020-Jan-11 22:00S 36°12' E 175°18'0 0.0 1019.3
2020-Jan-11 21:00S 36°12' E 175°18'0 0.0 1019.4
2020-Jan-11 20:00S 36°12' E 175°18'0 0.0 1019.7
2020-Jan-11 19:00S 36°12' E 175°18'0 0.0 1019.5
2020-Jan-11 18:00S 36°12' E 175°18'0 0.0 1019.5
2020-Jan-11 17:00S 36°12' E 175°18'0 0.0 1019.1
2020-Jan-11 16:00S 36°12' E 175°18'0 0.0 1019.3
2020-Jan-11 15:00S 36°12' E 175°18'0 0.0 1019.2
2020-Jan-11 14:00S 36°12' E 175°18'0 0.0 1019.7
2020-Jan-11 13:00S 36°12' E 175°18'0 0.0 1020.3
2020-Jan-11 12:00S 36°12' E 175°18'0 0.0 1020.8
2020-Jan-11 11:00S 36°12' E 175°18'0 0.0 1020.8
2020-Jan-11 10:00S 36°12' E 175°18'0 0.0 1020.6
2020-Jan-11 09:00S 36°12' E 175°18'0 0.0 1019.7
2020-Jan-11 08:00S 36°12' E 175°18'0 0.0 1019.2
2020-Jan-11 07:00S 36°12' E 175°18'0 0.0 1018.9
2020-Jan-11 06:00S 36°12' E 175°18'0 0.0 1018.6
2020-Jan-11 05:00S 36°12' E 175°18'0 0.0 1018.5
2020-Jan-11 04:00S 36°12' E 175°18'0 0.0 1019.2
2020-Jan-11 03:00S 36°12' E 175°18'0 0.0 1019.7
2020-Jan-11 02:00S 36°12' E 175°18'0 0.0 1020.2
2020-Jan-11 01:00S 36°12' E 175°18'0 0.0 1020.7
2020-Jan-11 00:00S 36°12' E 175°18'0 0.0 1021.2
2020-Jan-10 23:00S 36°12' E 175°18'0 0.0 1021.4
2020-Jan-10 22:00S 36°12' E 175°18'0 0.0 1021.7
2020-Jan-10 21:00S 36°12' E 175°18'0 0.0 1022.0
2020-Jan-10 20:00S 36°12' E 175°18'0 0.0 1022.0
2020-Jan-10 19:00S 36°12' E 175°18'0 0.0 1021.9
2020-Jan-10 18:00S 36°12' E 175°18'0 0.0 1021.5
2020-Jan-10 17:00S 36°12' E 175°18'0 0.0 1021.4
2020-Jan-10 16:00S 36°12' E 175°18'0 0.0 1021.1
2020-Jan-10 15:00S 36°12' E 175°18'0 0.0 1021.3
2020-Jan-10 14:00S 36°12' E 175°18'0 0.0 1021.5
2020-Jan-10 13:00S 36°12' E 175°18'0 0.0 1022.3
2020-Jan-10 12:00S 36°12' E 175°18'0 0.0 1022.2
2020-Jan-10 11:00S 36°12' E 175°18'0 0.0 1022.3
2020-Jan-10 10:00S 36°12' E 175°18'0 0.0 1022.1
2020-Jan-10 09:00S 36°12' E 175°18'0 0.0 1021.8
2020-Jan-10 08:00S 36°12' E 175°18'0 0.0 1022.0
2020-Jan-10 07:00S 36°12' E 175°18'5 4.8 1020.9
2020-Jan-10 06:00S 36°12' E 175°24'0 0.0 1020.4
2020-Jan-10 05:00S 36°12' E 175°24'0 0.0 1020.4
2020-Jan-10 04:00S 36°12' E 175°24'5 4.8 1020.5
2020-Jan-10 03:00S 36°12' E 175°18'5 4.8 1021.0
2020-Jan-10 02:00S 36°12' E 175°24'0 0.0 1020.9
2020-Jan-10 01:00S 36°12' E 175°24'0 0.0 1021.4
2020-Jan-10 00:00S 36°12' E 175°24'0 0.0 1022.1
2020-Jan-09 23:00S 36°12' E 175°24'0 0.0 1022.6
2020-Jan-09 22:00S 36°12' E 175°24'0 0.0 1022.3
2020-Jan-09 21:00S 36°12' E 175°24'0 0.0 1022.4
2020-Jan-09 20:00S 36°12' E 175°24'0 0.0 1022.4
2020-Jan-09 19:00S 36°12' E 175°24'0 0.0 1021.9
2020-Jan-09 18:00S 36°12' E 175°24'0 0.0 1021.4
2020-Jan-09 17:00S 36°12' E 175°24'0 0.0 1020.8
2020-Jan-09 16:00S 36°12' E 175°24'0 0.0 1020.4
2020-Jan-09 15:00S 36°12' E 175°24'0 0.0 1020.3
2020-Jan-09 14:00S 36°12' E 175°24'0 0.0 1020.6
2020-Jan-09 13:00S 36°12' E 175°24'0 0.0 1020.8
2020-Jan-09 12:00S 36°12' E 175°24'0 0.0 1021.1
2020-Jan-09 11:00S 36°12' E 175°24'0 0.0 1020.9
2020-Jan-09 10:00S 36°12' E 175°24'0 0.0 1020.9
2020-Jan-09 09:00S 36°12' E 175°24'0 0.0 1020.6
2020-Jan-09 08:00S 36°12' E 175°24'0 0.0 1020.0
2020-Jan-09 07:00S 36°12' E 175°24'0 0.0 1019.3
2020-Jan-09 06:00S 36°12' E 175°24'0 0.0 1018.9
2020-Jan-09 05:00S 36°12' E 175°24'0 0.0 1018.7
2020-Jan-09 04:00S 36°12' E 175°24'5 4.8 1018.6
2020-Jan-09 03:00S 36°12' E 175°18'5 4.8 1019.1
2020-Jan-09 02:00S 36°12' E 175°12'8 7.7 1019.4
2020-Jan-09 01:00S 36°18' E 175°06'5 4.8 1019.5
2020-Jan-09 00:00S 36°18' E 175°00'5 4.8 1019.8
2020-Jan-08 23:00S 36°18' E 174°54'8 7.7 1019.8
2020-Jan-08 22:00S 36°24' E 174°48'0 0.0 1019.8
2020-Jan-08 21:00S 36°24' E 174°48'0 0.0 1019.9
2020-Jan-08 20:00S 36°24' E 174°48'0 0.0 1019.7
2020-Jan-08 19:00S 36°24' E 174°48'0 0.0 1019.1
2020-Jan-08 18:00S 36°24' E 174°48'0 0.0 1018.7
2020-Jan-08 17:00S 36°24' E 174°48'0 0.0 1018.2
2020-Jan-08 16:00S 36°24' E 174°48'0 0.0 1017.8
2020-Jan-08 15:00S 36°24' E 174°48'0 0.0 1017.7
2020-Jan-08 14:00S 36°24' E 174°48'0 0.0 1018.1
2020-Jan-08 13:00S 36°24' E 174°48'0 0.0 1018.3
2020-Jan-08 12:00S 36°24' E 174°48'0 0.0 1018.5
2020-Jan-08 11:00S 36°24' E 174°48'0 0.0 1018.6
2020-Jan-08 10:00S 36°24' E 174°48'0 0.0 1018.7
2020-Jan-08 09:00S 36°24' E 174°48'0 0.0 1018.3
2020-Jan-08 08:00S 36°24' E 174°48'0 0.0 1018.0
2020-Jan-08 07:00S 36°24' E 174°48'0 0.0 1017.1
2020-Jan-08 06:00S 36°24' E 174°48'0 0.0 1016.4
2020-Jan-08 05:00S 36°24' E 174°48'0 0.0 1016.3
2020-Jan-08 04:00S 36°24' E 174°48'6 6.0 1016.4
2020-Jan-08 03:00S 36°30' E 174°48'0 0.0 1016.9
2020-Jan-08 02:00S 36°30' E 174°48'8 7.7 1017.1
2020-Jan-08 01:00S 36°36' E 174°54'6 6.0 1017.3
2020-Jan-08 00:00S 36°42' E 174°54'8 7.7 1017.4
2020-Jan-07 23:00S 36°48' E 175°00'0 0.0 1017.4
2020-Jan-07 22:00S 36°48' E 175°00'6 6.0 1017.1
2020-Jan-07 21:00S 36°54' E 175°00'0 0.0 1017.0
2020-Jan-07 20:00S 36°54' E 175°00'0 0.0 1016.9
2020-Jan-07 19:00S 36°54' E 175°00'0 0.0 1016.4
2020-Jan-07 18:00S 36°54' E 175°00'0 0.0 1015.8
2020-Jan-07 17:00S 36°54' E 175°00'0 0.0 1015.3
2020-Jan-07 16:00S 36°54' E 175°00'0 0.0 1014.9
2020-Jan-07 15:00S 36°54' E 175°00'0 0.0 1014.6
2020-Jan-07 14:00S 36°54' E 175°00'0 0.0 1014.7
2020-Jan-07 13:00S 36°54' E 175°00'0 0.0 1014.8
2020-Jan-07 12:00S 36°54' E 175°00'0 0.0 1014.7
2020-Jan-07 11:00S 36°54' E 175°00'0 0.0 1014.2
2020-Jan-07 10:00S 36°54' E 175°00'0 0.0 1014.0
2020-Jan-07 09:00S 36°54' E 175°00'0 0.0 1013.6
2020-Jan-07 08:00S 36°54' E 175°00'0 0.0 1013.2
2020-Jan-07 07:00S 36°54' E 175°00'0 0.0 1012.5
2020-Jan-07 06:00S 36°54' E 175°00'0 0.0 1011.8
2020-Jan-07 05:00S 36°54' E 175°00'0 0.0 1011.7
2020-Jan-07 04:00S 36°54' E 175°00'0 0.0 1011.5
2020-Jan-07 03:00S 36°54' E 175°00'0 0.0 1011.5
2020-Jan-07 02:00S 36°54' E 175°00'0 0.0 1011.5
2020-Jan-07 01:00S 36°54' E 175°00'0 0.0 1011.6
2020-Jan-07 00:00S 36°54' E 175°00'0 0.0 1011.7
2020-Jan-06 23:00S 36°54' E 175°00'0 0.0 1012.1
2020-Jan-06 22:00S 36°54' E 175°00'0 0.0 1012.1
2020-Jan-06 21:00S 36°54' E 175°00'0 0.0 1011.7
2020-Jan-06 20:00S 36°54' E 175°00'0 0.0 1011.0
2020-Jan-06 19:00S 36°54' E 175°00'0 0.0 1010.7
2020-Jan-06 18:00S 36°54' E 175°00'0 0.0 1010.2
2020-Jan-06 17:00S 36°54' E 175°00'0 0.0 1009.3
2020-Jan-06 16:00S 36°54' E 175°00'0 0.0 1008.9
2020-Jan-06 15:00S 36°54' E 175°00'0 0.0 1008.6
2020-Jan-06 14:00S 36°54' E 175°00'0 0.0 1008.6
2020-Jan-06 13:00S 36°54' E 175°00'0 0.0 1009.2
2020-Jan-06 12:00S 36°54' E 175°00'0 0.0 1009.3
2020-Jan-06 11:00S 36°54' E 175°00'0 0.0 1009.1
2020-Jan-06 10:00S 36°54' E 175°00'0 0.0 1009.1
2020-Jan-06 09:00S 36°54' E 175°00'0 0.0 1009.0
2020-Jan-06 08:00S 36°54' E 175°00'0 0.0 1008.7
2020-Jan-06 07:00S 36°54' E 175°00'0 0.0 1008.1
2020-Jan-06 06:00S 36°54' E 175°00'0 0.0 1007.7
2020-Jan-06 05:00S 36°54' E 175°00'0 0.0 1007.3
2020-Jan-06 04:00S 36°54' E 175°00'0 0.0 1007.6
2020-Jan-06 03:00S 36°54' E 175°00'0 0.0 1008.0
2020-Jan-06 02:00S 36°54' E 175°00'0 0.0 1007.9
2020-Jan-06 01:00S 36°54' E 175°00'0 0.0 1008.1
2020-Jan-06 00:00S 36°54' E 175°00'0 0.0 1008.4
2020-Jan-05 23:00S 36°54' E 175°00'0 0.0 1008.6
2020-Jan-05 22:00S 36°54' E 175°00'0 0.0 1008.5
2020-Jan-05 21:00S 36°54' E 175°00'0 0.0 1008.4
2020-Jan-05 20:00S 36°54' E 175°00'0 0.0 1008.3
2020-Jan-05 19:00S 36°54' E 175°00'0 0.0 1007.5
2020-Jan-05 18:00S 36°54' E 175°00'0 0.0 1007.6
2020-Jan-05 17:00S 36°54' E 175°00'0 0.0 1006.8
2020-Jan-05 16:00S 36°54' E 175°00'0 0.0 1005.4
2020-Jan-05 15:00S 36°54' E 175°00'0 0.0 1005.5
2020-Jan-05 14:00S 36°54' E 175°00'0 0.0 1006.6
2020-Jan-05 13:00S 36°54' E 175°00'0 0.0 1007.7
2020-Jan-05 12:00S 36°54' E 175°00'0 0.0 1008.1
2020-Jan-05 11:00S 36°54' E 175°00'0 0.0 1009.1
2020-Jan-05 10:00S 36°54' E 175°00'0 0.0 1009.8
2020-Jan-05 09:00S 36°54' E 175°00'0 0.0 1010.7
2020-Jan-05 08:00S 36°54' E 175°00'0 0.0 1010.9
2020-Jan-05 07:00S 36°54' E 175°00'0 0.0 1010.6
2020-Jan-05 06:00S 36°54' E 175°00'0 0.0 1010.9
2020-Jan-05 05:00S 36°54' E 175°00'0 0.0 1010.8
2020-Jan-05 04:00S 36°54' E 175°00'0 0.0 1012.3
2020-Jan-05 03:00S 36°54' E 175°00'0 0.0 1012.7
2020-Jan-05 02:00S 36°54' E 175°00'0 0.0 1012.1
2020-Jan-05 01:00S 36°54' E 175°00'0 0.0 1012.5
2020-Jan-05 00:00S 36°54' E 175°00'0 0.0 1013.1
2020-Jan-04 23:00S 36°54' E 175°00'0 0.0 1013.6
2020-Jan-04 22:00S 36°54' E 175°00'0 0.0 1013.7
2020-Jan-04 21:00S 36°54' E 175°00'0 0.0 1014.0
2020-Jan-04 20:00S 36°54' E 175°00'6 6.0 1013.5
2020-Jan-04 19:00S 36°48' E 175°00'5 4.8 1013.4
2020-Jan-04 18:00S 36°48' E 174°54'0 0.0 1013.3
2020-Jan-04 17:00S 36°48' E 174°54'0 0.0 1012.5
2020-Jan-04 16:00S 36°48' E 174°54'0 0.0 1012.3
2020-Jan-04 15:00S 36°48' E 174°54'0 0.0 1012.2
2020-Jan-04 14:00S 36°48' E 174°54'0 0.0 1012.3
2020-Jan-04 13:00S 36°48' E 174°54'0 0.0 1012.4
2020-Jan-04 12:00S 36°48' E 174°54'0 0.0 1012.6
2020-Jan-04 11:00S 36°48' E 174°54'0 0.0 1012.8
2020-Jan-04 10:00S 36°48' E 174°54'0 0.0 1012.2
2020-Jan-04 09:00S 36°48' E 174°54'   1011.6

Dump ship's entire track history